createdAt,value
2019-03-31T00:02:20.669Z,177.53
2019-03-31T00:04:50.950Z,175.40
2019-03-31T00:07:21.134Z,180.27
2019-03-31T00:09:51.316Z,171.47
2019-03-31T00:12:21.507Z,175.67
2019-03-31T00:14:52.314Z,170.83
2019-03-31T00:17:22.574Z,175.27
2019-03-31T00:19:52.784Z,177.13
2019-03-31T00:22:22.972Z,169.10
2019-03-31T00:24:53.691Z,177.80
2019-03-31T00:27:25.207Z,169.57
2019-03-31T00:29:55.383Z,165.47
2019-03-31T00:32:25.647Z,172.37
2019-03-31T00:34:55.822Z,174.53
2019-03-31T00:37:26.017Z,170.13
2019-03-31T00:39:56.188Z,168.73
2019-03-31T00:42:26.371Z,169.37
2019-03-31T00:44:56.550Z,171.93
2019-03-31T00:47:26.739Z,184.80
2019-03-31T00:49:56.919Z,173.47
2019-03-31T00:52:27.099Z,176.50
2019-03-31T00:54:57.280Z,175.30
2019-03-31T00:57:27.496Z,179.10
2019-03-31T00:59:57.670Z,172.70
2019-03-31T01:02:30.927Z,172.90
2019-03-31T01:05:01.627Z,185.83
2019-03-31T01:07:33.034Z,175.03
2019-03-31T01:10:03.686Z,175.27
2019-03-31T01:12:35.563Z,174.20
2019-03-31T01:15:11.582Z,175.27
2019-03-31T01:17:42.023Z,177.77
2019-03-31T01:20:12.461Z,175.57
2019-03-31T01:22:42.655Z,189.03
2019-03-31T01:25:14.468Z,178.20
2019-03-31T01:27:44.652Z,172.57
2019-03-31T01:30:16.278Z,180.43
2019-03-31T01:32:46.550Z,176.67
2019-03-31T01:35:18.355Z,174.30
2019-03-31T01:37:48.538Z,171.93
2019-03-31T01:40:19.069Z,187.67
2019-03-31T01:42:49.348Z,182.17
2019-03-31T01:45:19.610Z,179.53
2019-03-31T01:47:50.125Z,177.07
2019-03-31T01:50:21.235Z,171.97
2019-03-31T01:52:51.427Z,175.53
2019-03-31T01:55:21.641Z,175.17
2019-03-31T01:57:51.894Z,174.93
2019-03-31T02:00:30.570Z,172.73
2019-03-31T02:03:00.913Z,172.77
2019-03-31T02:05:31.350Z,183.27
2019-03-31T02:08:01.763Z,173.67
2019-03-31T02:10:32.018Z,176.77
2019-03-31T02:13:02.232Z,185.47
2019-03-31T02:15:32.483Z,189.70
2019-03-31T02:18:02.859Z,180.13
2019-03-31T02:20:33.046Z,191.67
2019-03-31T02:23:03.239Z,188.33
2019-03-31T02:25:33.515Z,177.90
2019-03-31T02:28:03.700Z,179.77
2019-03-31T02:30:33.987Z,183.03
2019-03-31T02:33:04.335Z,184.80
2019-03-31T02:35:34.598Z,184.73
2019-03-31T02:38:04.847Z,184.40
2019-03-31T02:40:35.035Z,180.23
2019-03-31T02:43:05.362Z,184.93
2019-03-31T02:45:35.552Z,182.77
2019-03-31T02:48:05.808Z,185.23
2019-03-31T02:50:49.887Z,186.70
2019-03-31T02:53:20.813Z,183.90
2019-03-31T02:55:51.232Z,182.80
2019-03-31T02:58:21.679Z,184.00
2019-03-31T03:00:52.219Z,176.93
2019-03-31T03:03:22.546Z,187.63
2019-03-31T03:05:54.354Z,173.07
2019-03-31T03:08:26.083Z,186.53
2019-03-31T03:10:58.737Z,195.00
2019-03-31T03:13:32.118Z,189.77
2019-03-31T03:16:27.369Z,182.93
2019-03-31T03:18:58.142Z,183.30
2019-03-31T03:21:28.594Z,181.40
2019-03-31T03:23:58.787Z,184.20
2019-03-31T03:26:29.081Z,174.90
2019-03-31T03:28:59.501Z,180.03
2019-03-31T03:31:29.705Z,176.23
2019-03-31T03:34:00.033Z,174.57
2019-03-31T03:36:30.204Z,188.47
2019-03-31T03:39:00.465Z,178.50
2019-03-31T03:41:30.655Z,182.47
2019-03-31T03:44:02.549Z,177.73
2019-03-31T03:46:33.051Z,175.47
2019-03-31T03:49:03.286Z,192.53
2019-03-31T03:51:33.516Z,182.90
2019-03-31T03:54:04.083Z,180.27
2019-03-31T03:56:34.254Z,168.57
2019-03-31T03:59:04.548Z,168.73
2019-03-31T04:01:34.744Z,173.93
2019-03-31T04:04:05.083Z,173.23
2019-03-31T04:06:35.343Z,175.77
2019-03-31T04:09:07.327Z,187.30
2019-03-31T04:11:37.586Z,173.43
2019-03-31T04:14:11.820Z,175.03
2019-03-31T04:16:42.009Z,188.63
2019-03-31T04:19:12.367Z,186.60
2019-03-31T04:21:42.543Z,168.73
2019-03-31T04:24:12.757Z,175.20
2019-03-31T04:26:42.926Z,173.83
2019-03-31T04:29:13.117Z,164.13
2019-03-31T04:31:43.537Z,165.20
2019-03-31T04:34:13.726Z,171.57
2019-03-31T04:36:43.917Z,167.87
2019-03-31T04:39:21.339Z,166.77
2019-03-31T04:41:48.875Z,166.87
2019-03-31T04:44:19.214Z,173.30
2019-03-31T04:46:49.602Z,173.23
2019-03-31T04:49:19.844Z,163.57
2019-03-31T04:51:50.042Z,167.60
2019-03-31T04:54:26.381Z,167.03
2019-03-31T04:56:57.345Z,161.60
2019-03-31T04:59:27.600Z,165.77
2019-03-31T05:01:59.069Z,168.20
2019-03-31T05:04:29.415Z,169.60
2019-03-31T05:07:02.484Z,163.97
2019-03-31T05:09:33.067Z,160.60
2019-03-31T05:12:04.216Z,166.43
2019-03-31T05:14:34.454Z,164.07
2019-03-31T05:19:45.115Z,166.30
2019-03-31T05:22:16.110Z,162.23
2019-03-31T05:24:46.873Z,160.23
2019-03-31T05:27:17.113Z,162.87
2019-03-31T05:29:47.303Z,159.93
2019-03-31T05:32:17.483Z,164.13
2019-03-31T05:34:47.663Z,161.57
2019-03-31T05:37:17.924Z,161.53
2019-03-31T05:39:48.103Z,162.50
2019-03-31T05:42:18.292Z,165.67
2019-03-31T05:44:48.474Z,161.90
2019-03-31T05:47:19.501Z,168.17
2019-03-31T05:49:49.695Z,163.37
2019-03-31T05:52:19.892Z,166.43
2019-03-31T05:54:50.067Z,160.13
2019-03-31T05:57:20.539Z,168.23
2019-03-31T05:59:50.782Z,162.03
2019-03-31T06:02:21.519Z,162.17
2019-03-31T06:04:52.670Z,164.93
2019-03-31T06:07:22.855Z,157.43
2019-03-31T06:09:53.035Z,168.97
2019-03-31T06:12:23.243Z,159.43
2019-03-31T06:14:53.415Z,164.33
2019-03-31T06:17:23.602Z,165.07
2019-03-31T06:19:53.835Z,155.33
2019-03-31T06:22:24.033Z,160.17
2019-03-31T06:24:54.212Z,160.63
2019-03-31T06:27:24.403Z,162.50
2019-03-31T06:29:54.740Z,163.87
2019-03-31T06:32:25.031Z,159.90
2019-03-31T06:34:55.207Z,157.93
2019-03-31T06:37:25.762Z,165.63
2019-03-31T06:39:55.955Z,161.27
2019-03-31T06:42:27.297Z,158.33
2019-03-31T06:44:57.653Z,165.20
2019-03-31T06:47:27.843Z,158.97
2019-03-31T06:49:58.170Z,157.87
2019-03-31T06:52:28.435Z,161.30
2019-03-31T06:54:58.630Z,163.00
2019-03-31T06:57:28.811Z,162.47
2019-03-31T06:59:58.986Z,160.57
2019-03-31T07:02:29.174Z,157.37
2019-03-31T07:05:01.222Z,159.20
2019-03-31T07:07:31.230Z,154.70
2019-03-31T07:10:01.487Z,165.07
2019-03-31T07:12:31.951Z,178.37
2019-03-31T07:15:02.186Z,170.93
2019-03-31T07:17:33.450Z,171.73
2019-03-31T07:20:04.531Z,170.60
2019-03-31T07:22:34.699Z,172.67
2019-03-31T07:25:06.106Z,161.83
2019-03-31T07:27:36.459Z,165.00
2019-03-31T07:30:08.539Z,158.03
2019-03-31T07:32:39.026Z,163.97
2019-03-31T07:35:18.242Z,164.90
2019-03-31T07:37:47.659Z,156.30
2019-03-31T07:40:15.268Z,164.70
2019-03-31T07:42:45.828Z,157.70
2019-03-31T07:45:16.839Z,155.30
2019-03-31T07:47:47.167Z,153.60
2019-03-31T07:50:18.270Z,156.83
2019-03-31T07:52:48.626Z,158.70
2019-03-31T07:55:19.235Z,154.87
2019-03-31T07:57:49.503Z,155.37
2019-03-31T08:00:20.665Z,154.60
2019-03-31T08:02:51.915Z,155.30
2019-03-31T08:05:32.485Z,159.17
2019-03-31T08:07:54.170Z,159.30
2019-03-31T08:10:24.507Z,157.07
2019-03-31T08:12:54.710Z,155.43
2019-03-31T08:15:24.905Z,158.43
2019-03-31T08:17:55.083Z,152.50
2019-03-31T08:20:25.274Z,161.90
2019-03-31T08:22:57.173Z,153.70
2019-03-31T08:25:27.347Z,163.07
2019-03-31T08:27:57.552Z,152.40
2019-03-31T08:30:27.807Z,151.40
2019-03-31T08:32:57.996Z,152.70
2019-03-31T08:35:28.170Z,153.23
2019-03-31T08:37:58.363Z,154.00
2019-03-31T08:40:29.646Z,149.90
2019-03-31T08:42:59.831Z,151.70
2019-03-31T08:45:30.594Z,149.50
2019-03-31T08:48:00.879Z,151.37
2019-03-31T08:50:34.480Z,151.73
2019-03-31T08:53:03.078Z,152.80
2019-03-31T08:55:33.340Z,150.07
2019-03-31T08:58:03.686Z,148.37
2019-03-31T09:00:44.538Z,151.60
2019-03-31T09:03:14.727Z,155.23
2019-03-31T09:05:44.914Z,153.73
2019-03-31T09:08:15.099Z,153.03
2019-03-31T09:10:45.327Z,156.70
2019-03-31T09:13:15.527Z,155.93
2019-03-31T09:15:45.710Z,154.07
2019-03-31T09:18:16.006Z,151.97
2019-03-31T09:20:46.241Z,156.70
2019-03-31T09:23:16.419Z,152.97
2019-03-31T09:25:47.817Z,157.37
2019-03-31T09:28:18.275Z,153.17
2019-03-31T09:30:48.455Z,152.53
2019-03-31T09:33:18.643Z,150.93
2019-03-31T09:35:48.832Z,155.37
2019-03-31T09:38:19.007Z,151.27
2019-03-31T09:40:49.223Z,151.20
2019-03-31T09:43:19.412Z,148.23
2019-03-31T09:45:49.594Z,149.17
2019-03-31T09:48:19.782Z,149.47
2019-03-31T09:50:50.030Z,159.57
2019-03-31T09:53:20.290Z,150.57
2019-03-31T09:55:50.490Z,152.13
2019-03-31T09:58:20.680Z,147.50
2019-03-31T10:00:51.764Z,150.63
2019-03-31T10:03:22.412Z,148.80
2019-03-31T10:05:52.750Z,150.20
2019-03-31T10:08:23.043Z,149.57
2019-03-31T10:10:53.210Z,150.33
2019-03-31T10:13:23.492Z,148.63
2019-03-31T10:15:53.669Z,149.07
2019-03-31T10:18:23.855Z,150.03
2019-03-31T10:20:54.028Z,149.27
2019-03-31T10:23:24.215Z,149.10
2019-03-31T10:25:54.387Z,148.53
2019-03-31T10:28:24.575Z,151.50
2019-03-31T10:30:54.786Z,149.60
2019-03-31T10:33:24.978Z,153.83
2019-03-31T10:35:55.159Z,149.40
2019-03-31T10:38:25.350Z,149.80
2019-03-31T10:40:55.525Z,153.63
2019-03-31T10:43:25.743Z,150.03
2019-03-31T10:45:55.914Z,149.73
2019-03-31T10:48:26.106Z,153.50
2019-03-31T10:50:56.302Z,151.27
2019-03-31T10:53:26.482Z,150.83
2019-03-31T10:55:57.742Z,152.63
2019-03-31T10:58:27.932Z,149.63
2019-03-31T11:00:58.187Z,151.83
2019-03-31T11:03:28.362Z,149.67
2019-03-31T11:05:58.548Z,152.83
2019-03-31T11:08:28.715Z,153.70
2019-03-31T11:10:59.018Z,159.93
2019-03-31T11:13:29.210Z,155.47
2019-03-31T11:15:59.391Z,156.10
2019-03-31T11:18:29.566Z,152.53
2019-03-31T11:21:02.738Z,151.33
2019-03-31T11:23:33.203Z,151.77
2019-03-31T11:26:03.419Z,155.23
2019-03-31T11:28:33.589Z,149.87
2019-03-31T11:31:03.859Z,151.87
2019-03-31T11:33:34.026Z,150.77
2019-03-31T11:36:04.226Z,150.80
2019-03-31T11:38:34.400Z,153.40
2019-03-31T11:41:04.666Z,151.30
2019-03-31T11:43:34.843Z,150.83
2019-03-31T11:46:06.087Z,148.73
2019-03-31T11:48:36.289Z,148.30
2019-03-31T11:51:06.531Z,151.03
2019-03-31T11:53:36.768Z,153.70
2019-03-31T11:56:06.947Z,150.73
2019-03-31T11:58:37.122Z,151.20
2019-03-31T12:01:07.484Z,149.60
2019-03-31T12:03:37.656Z,152.33
2019-03-31T12:06:11.122Z,149.63
2019-03-31T12:08:39.894Z,150.23
2019-03-31T12:11:10.175Z,153.53
2019-03-31T12:13:40.361Z,154.00
2019-03-31T12:16:10.623Z,149.00
2019-03-31T12:18:40.823Z,151.23
2019-03-31T12:21:11.014Z,152.23
2019-03-31T12:23:41.199Z,153.47
2019-03-31T12:26:11.374Z,158.83
2019-03-31T12:28:41.550Z,150.13
2019-03-31T12:31:11.815Z,150.07
2019-03-31T12:33:41.990Z,154.13
2019-03-31T12:36:12.426Z,153.93
2019-03-31T12:38:42.613Z,153.90
2019-03-31T12:41:12.799Z,151.93
2019-03-31T12:43:42.980Z,150.77
2019-03-31T12:46:13.168Z,149.17
2019-03-31T12:48:43.352Z,151.33
2019-03-31T12:51:13.694Z,152.10
2019-03-31T12:53:43.875Z,150.73
2019-03-31T12:56:14.059Z,153.03
2019-03-31T12:58:44.236Z,157.10
2019-03-31T13:01:14.490Z,149.30
2019-03-31T13:03:44.667Z,162.80
2019-03-31T13:06:14.858Z,148.70
2019-03-31T13:08:45.036Z,152.50
2019-03-31T13:11:16.287Z,150.00
2019-03-31T13:13:46.479Z,151.83
2019-03-31T13:16:16.668Z,150.43
2019-03-31T13:18:46.842Z,151.77
2019-03-31T13:21:17.102Z,149.73
2019-03-31T13:23:47.286Z,152.30
2019-03-31T13:26:17.470Z,154.67
2019-03-31T13:28:47.648Z,149.87
2019-03-31T13:33:58.277Z,150.07
2019-03-31T13:36:28.500Z,152.93
2019-03-31T13:38:58.676Z,149.50
2019-03-31T13:41:28.891Z,152.83
2019-03-31T13:43:59.080Z,152.97
2019-03-31T13:46:29.266Z,159.37
2019-03-31T13:48:59.443Z,149.53
2019-03-31T13:51:30.606Z,149.57
2019-03-31T13:54:00.789Z,149.53
2019-03-31T13:56:31.401Z,149.70
2019-03-31T13:59:01.836Z,156.03
2019-03-31T14:01:32.018Z,150.83
2019-03-31T14:04:03.570Z,149.63
2019-03-31T14:06:34.352Z,153.10
2019-03-31T14:09:07.911Z,149.80
2019-03-31T14:11:38.098Z,149.40
2019-03-31T14:14:08.288Z,152.90
2019-03-31T14:16:38.566Z,156.50
2019-03-31T14:19:08.746Z,154.33
2019-03-31T14:21:40.146Z,150.57
2019-03-31T14:24:10.567Z,150.77
2019-03-31T14:26:40.751Z,153.43
2019-03-31T14:29:10.932Z,151.20
2019-03-31T14:31:41.114Z,149.87
2019-03-31T14:34:11.378Z,150.30
2019-03-31T14:36:41.571Z,150.17
2019-03-31T14:39:17.159Z,151.20
2019-03-31T14:41:46.939Z,152.87
2019-03-31T14:44:17.199Z,154.80
2019-03-31T14:46:47.538Z,153.30
2019-03-31T14:49:17.735Z,150.13
2019-03-31T14:51:47.923Z,157.20
2019-03-31T14:54:18.155Z,151.60
2019-03-31T14:56:48.347Z,151.33
2019-03-31T14:59:18.532Z,151.73
2019-03-31T15:01:48.731Z,150.07
2019-03-31T15:04:18.924Z,150.30
2019-03-31T15:06:49.110Z,155.93
2019-03-31T15:09:19.316Z,154.03
2019-03-31T15:11:49.831Z,150.57
2019-03-31T15:14:20.023Z,149.50
2019-03-31T15:16:50.206Z,151.97
2019-03-31T15:19:20.396Z,151.00
2019-03-31T15:21:50.951Z,156.00
2019-03-31T15:24:21.155Z,153.47
2019-03-31T15:26:51.339Z,148.93
2019-03-31T15:29:21.518Z,152.23
2019-03-31T15:31:51.793Z,152.13
2019-03-31T15:34:22.063Z,149.73
2019-03-31T15:36:52.261Z,155.90
2019-03-31T15:39:22.430Z,152.77
2019-03-31T15:41:52.794Z,152.03
2019-03-31T15:44:23.067Z,156.07
2019-03-31T15:46:54.347Z,154.60
2019-03-31T15:49:24.619Z,159.07
2019-03-31T15:54:43.398Z,157.03
2019-03-31T15:57:13.599Z,155.90
2019-03-31T15:59:53.204Z,154.13
2019-03-31T16:02:24.717Z,155.77
2019-03-31T16:04:55.962Z,155.90
2019-03-31T16:07:26.160Z,157.23
2019-03-31T16:09:56.907Z,157.63
2019-03-31T16:12:26.622Z,157.00
2019-03-31T16:14:57.347Z,156.33
2019-03-31T16:17:27.007Z,152.17
2019-03-31T16:19:56.658Z,151.33
2019-03-31T16:22:26.527Z,151.93
2019-03-31T16:24:57.754Z,153.03
2019-03-31T16:27:27.411Z,149.70
2019-03-31T16:29:57.072Z,149.03
2019-03-31T16:32:26.738Z,153.27
2019-03-31T16:34:56.387Z,163.30
2019-03-31T16:37:26.070Z,152.20
2019-03-31T16:39:55.810Z,149.60
2019-03-31T16:42:25.476Z,153.27
2019-03-31T16:44:58.489Z,150.87
2019-03-31T16:47:26.497Z,150.10
2019-03-31T16:49:56.162Z,155.90
2019-03-31T16:52:30.138Z,150.57
2019-03-31T16:54:59.956Z,149.47
2019-03-31T16:57:29.614Z,151.50
2019-03-31T16:59:59.280Z,157.07
2019-03-31T17:02:28.923Z,148.80
2019-03-31T17:04:58.583Z,149.57
2019-03-31T17:07:28.376Z,148.20
2019-03-31T17:09:58.039Z,149.20
2019-03-31T17:12:27.682Z,154.37
2019-03-31T17:14:57.364Z,148.70
2019-03-31T17:17:27.008Z,149.87
2019-03-31T17:19:56.696Z,153.83
2019-03-31T17:22:26.386Z,148.77
2019-03-31T17:24:56.047Z,148.30
2019-03-31T17:27:25.895Z,149.97
2019-03-31T17:29:55.603Z,151.87
2019-03-31T17:32:25.260Z,151.00
2019-03-31T17:34:54.951Z,153.77
2019-03-31T17:37:24.603Z,155.00
2019-03-31T17:40:05.398Z,150.50
2019-03-31T17:42:25.694Z,151.60
2019-03-31T17:44:55.462Z,148.77
2019-03-31T17:47:25.114Z,148.90
2019-03-31T17:49:55.874Z,152.37
2019-03-31T17:52:25.531Z,148.03
2019-03-31T17:54:55.183Z,149.93
2019-03-31T17:57:24.838Z,148.43
2019-03-31T17:59:54.540Z,149.67
2019-03-31T18:02:24.259Z,148.40
2019-03-31T18:04:53.929Z,148.57
2019-03-31T18:07:23.582Z,147.43
2019-03-31T18:09:53.242Z,146.93
2019-03-31T18:12:22.954Z,147.97
2019-03-31T18:14:52.614Z,148.43
2019-03-31T18:17:22.314Z,156.70
2019-03-31T18:19:51.979Z,147.63
2019-03-31T18:22:21.619Z,153.00
2019-03-31T18:24:51.280Z,144.93
2019-03-31T18:27:20.923Z,145.63
2019-03-31T18:29:50.579Z,149.63
2019-03-31T18:32:20.312Z,148.53
2019-03-31T18:34:49.964Z,148.57
2019-03-31T18:37:19.623Z,145.33
2019-03-31T18:39:49.360Z,144.43
2019-03-31T18:42:19.010Z,146.20
2019-03-31T18:44:48.743Z,149.43
2019-03-31T18:47:18.382Z,147.60
2019-03-31T18:49:48.038Z,146.67
2019-03-31T18:52:17.687Z,144.17
2019-03-31T18:54:55.126Z,144.10
2019-03-31T18:57:34.873Z,152.77
2019-03-31T19:00:26.659Z,144.97
2019-03-31T19:03:30.627Z,144.00
2019-03-31T19:06:25.094Z,146.10
2019-03-31T19:09:19.674Z,145.43
2019-03-31T19:12:11.243Z,145.97
2019-03-31T19:14:58.715Z,145.50
2019-03-31T19:17:59.601Z,146.07
2019-03-31T19:20:54.786Z,147.10
2019-03-31T19:23:46.521Z,145.00
2019-03-31T19:26:47.605Z,150.20
2019-03-31T19:29:26.860Z,142.53
2019-03-31T19:32:14.023Z,147.17
2019-03-31T19:34:49.615Z,144.10
2019-03-31T19:37:47.884Z,145.30
2019-03-31T19:40:36.617Z,150.83
2019-03-31T19:43:24.884Z,146.07
2019-03-31T19:46:12.646Z,144.47
2019-03-31T19:48:49.087Z,148.30
2019-03-31T19:51:33.450Z,143.87
2019-03-31T19:54:23.842Z,151.27
2019-03-31T19:57:11.932Z,143.63
2019-03-31T20:00:09.541Z,145.67
2019-03-31T20:02:56.671Z,158.77
2019-03-31T20:05:44.310Z,145.80
2019-03-31T20:08:33.035Z,142.03
2019-03-31T20:11:28.154Z,144.33
2019-03-31T20:14:07.389Z,140.67
2019-03-31T20:16:58.964Z,148.93
2019-03-31T20:19:41.928Z,143.43
2019-03-31T20:22:32.030Z,143.37
2019-03-31T20:25:15.662Z,143.77
2019-03-31T20:27:59.748Z,144.70
2019-03-31T20:30:39.154Z,145.40
2019-03-31T20:33:32.299Z,148.47
2019-03-31T20:36:18.127Z,149.23
2019-03-31T20:39:12.783Z,142.60
2019-03-31T20:42:04.547Z,146.00
2019-03-31T20:44:34.190Z,142.00
2019-03-31T20:47:03.927Z,142.47
2019-03-31T20:49:33.569Z,140.67
2019-03-31T20:52:03.302Z,143.93
2019-03-31T20:54:33.292Z,141.17
2019-03-31T20:57:03.098Z,140.63
2019-03-31T20:59:32.810Z,142.33
2019-03-31T21:02:02.479Z,141.40
2019-03-31T21:04:32.125Z,150.73
2019-03-31T21:07:01.777Z,143.90
2019-03-31T21:09:44.232Z,139.93
2019-03-31T21:12:02.790Z,142.23
2019-03-31T21:14:32.451Z,145.60
2019-03-31T21:17:02.128Z,142.73
2019-03-31T21:19:31.773Z,140.10
2019-03-31T21:22:01.430Z,146.87
2019-03-31T21:24:31.074Z,140.30
2019-03-31T21:27:00.734Z,144.03
2019-03-31T21:29:30.382Z,138.97
2019-03-31T21:32:00.039Z,140.00
2019-03-31T21:34:29.690Z,142.83
2019-03-31T21:36:59.342Z,141.93
2019-03-31T21:39:28.995Z,153.80
2019-03-31T21:41:58.734Z,145.07
2019-03-31T21:44:28.454Z,141.50
2019-03-31T21:46:58.111Z,142.20
2019-03-31T21:49:28.922Z,141.23
2019-03-31T21:51:58.662Z,141.30
2019-03-31T21:54:28.603Z,140.67
2019-03-31T21:56:58.671Z,141.27
2019-03-31T21:59:28.319Z,140.80
2019-03-31T22:01:58.057Z,140.60
2019-03-31T22:04:27.699Z,141.27
2019-03-31T22:06:57.430Z,140.90
2019-03-31T22:09:27.164Z,140.70
2019-03-31T22:11:56.887Z,144.07
2019-03-31T22:14:26.622Z,146.00
2019-03-31T22:16:56.283Z,139.67
2019-03-31T22:19:25.927Z,142.30
2019-03-31T22:21:55.590Z,141.63
2019-03-31T22:24:25.231Z,141.40
2019-03-31T22:26:54.890Z,142.20
2019-03-31T22:29:24.587Z,145.10
2019-03-31T22:31:54.264Z,139.73
2019-03-31T22:34:23.902Z,146.47
2019-03-31T22:36:53.566Z,142.47
2019-03-31T22:39:23.366Z,168.63
2019-03-31T22:41:53.019Z,146.73
2019-03-31T22:44:22.663Z,141.03
2019-03-31T22:46:54.398Z,142.27
2019-03-31T22:49:23.727Z,149.63
2019-03-31T22:51:56.270Z,140.67
2019-03-31T22:54:24.730Z,144.43
2019-03-31T22:56:54.406Z,152.67
2019-03-31T22:59:24.059Z,140.17
2019-03-31T23:01:53.785Z,139.87
2019-03-31T23:04:23.430Z,140.33
2019-03-31T23:06:53.091Z,147.00
2019-03-31T23:09:22.742Z,143.57
2019-03-31T23:11:52.400Z,142.80
2019-03-31T23:14:22.062Z,146.50
2019-03-31T23:16:51.718Z,142.83
2019-03-31T23:19:21.439Z,146.23
2019-03-31T23:21:51.103Z,141.50
2019-03-31T23:24:20.752Z,140.97
2019-03-31T23:26:50.474Z,140.43
2019-03-31T23:29:20.122Z,139.27
2019-03-31T23:31:49.776Z,139.70
2019-03-31T23:34:20.398Z,159.50
2019-03-31T23:36:50.051Z,144.63
2019-03-31T23:39:19.718Z,142.87
2019-03-31T23:41:49.371Z,138.23
2019-03-31T23:44:21.366Z,142.53
2019-03-31T23:46:51.026Z,138.53
2019-03-31T23:49:20.676Z,139.33
2019-03-31T23:51:50.331Z,142.10
2019-03-31T23:54:19.987Z,143.07
2019-03-31T23:56:49.646Z,139.03
2019-03-31T23:59:19.302Z,147.00
